Erwin Heights, North Carolina
Current Conditions -  °F | °C
As of 4:55 AM on Sunday 23 Nov 2014 (Local Time) from KEXX Reporting Station
Overcast Overcast  
Wind Chill: 40°   Ceiling: 2200
Heat Index: 40°   Visibility: 10mi
Dew Point: 29°   Wind: 0mph
Humidity: 65%   Direction: NA
Pressure: 30.26"   Gusts: NA
Location:  35.864°N, 80.1016°W
Report Text: KEXX 230955Z AUTO 00000KT 10SM BKN022 OVC060 05/M01 A3026 RMK AO2 T00461014
Loading
Personal Weather Stations






























Interactive Weather Map New forecast layout! Learn more

10-Day Weather Forecast

Advertisements
Track Severe Weather on mobile